Flight Track Log - Related Links

Times and Time Zones

All times are in EDT time to prevent confusion due to time zone crossing. See the EJA614 flight status page for this flight to view local times or setup timezone preferences in your user account.

Time Position Orientation Groundspeed Altitude Reporting Facility
EDT Latitude Longitude Course Direction KTS MPH feet Rate Location/Type
Mon 08:43:00 AM 39.0486 -74.8833 52° Northeast 198 228 1,900  Level Washington Center
Mon 08:45:26 AM 39.1497 -74.7217 51° Northeast 269 310 9,200 2,853 Climbing Washington Center
Mon 08:46:24 AM 39.1992 -74.6436 51° Northeast 299 344 11,600 2,519 Climbing Washington Center
Mon 08:48:00 AM 39.3435 -74.3998 52° Northeast  Level FlightAware Approximate
Mon 08:48:08 AM 39.3114 -74.4658 51° Northeast 337 388 16,000  Level New York Center
Mon 08:49:09 AM 39.3814 -74.3619 49° Northeast 361 415 17,000 508 Climbing New York Center
Mon 08:50:06 AM 39.4514 -74.2553 50° Northeast 401 461 17,000  Level New York Center
Mon 08:51:07 AM 39.5256 -74.1406 50° Northeast 425 489 17,000  Level New York Center
Mon 08:52:08 AM 39.6086 -74.0097 50° Northeast 425 489 17,000  Level New York Center
Mon 08:53:06 AM 39.6825 -73.8944 50° Northeast 419 482 17,000  Level New York Center
Mon 08:54:06 AM 39.7581 -73.8006 44° Northeast 414 476 17,000  Level New York Center
Mon 08:55:07 AM 39.8486 -73.6828 45° Northeast 414 476 17,000  Level New York Center
Mon 08:56:07 AM 39.9325 -73.5753 44° Northeast 415 478 17,000 -245 Level New York Center
Mon 08:58:23 AM 40.1128 -73.3436 44° Northeast 407 468 16,200 -918 Descending Boston Center
Mon 08:59:23 AM 40.1950 -73.2386 44° Northeast 407 468 14,000 -2,132 Descending Boston Center
Mon 09:00:24 AM 40.2747 -73.1364 44° Northeast 407 468 11,900 -1,488 Descending Boston Center
Mon 09:01:24 AM 40.3483 -73.0392 45° Northeast 396 456 11,000 -458 Descending Boston Center
Mon 09:02:22 AM 40.4217 -72.9417 45° Northeast 376 433 11,000 -497 Level Boston Center
Mon 09:04:37 AM 40.5833 -72.7333 44° Northeast 309 356 9,400 -597 Descending New York TRACON
Mon 09:05:43 AM 40.6667 -72.7000 17° North 290 334 9,000 -476 Descending New York TRACON
Mon 09:06:43 AM 40.7333 -72.7000 360° North 292 336 8,400 -900 Descending New York TRACON
Mon 09:07:43 AM 40.8167 -72.7000 360° North 291 335 7,200 -700 Descending New York TRACON
Mon 09:08:43 AM 40.9000 -72.7000 360° North 287 330 7,000 -100 Descending New York TRACON
Mon 09:09:43 AM 40.9833 -72.7000 360° North 287 330 7,000  Level New York TRACON
Mon 09:10:37 AM 41.0333 -72.7500 323° Northwest 278 320 7,000  Level New York TRACON
Mon 09:11:43 AM 41.0667 -72.8500 294° West 267 307 7,000 -476 Level New York TRACON
Mon 09:12:43 AM 41.1000 -72.9333 298° West 261 300 6,000 -1,000 Descending New York TRACON
Mon 09:13:37 AM 41.1167 -73.0167 285° West 236 272 5,100 -526 Descending New York TRACON
Mon 09:14:37 AM 41.1500 -73.0833 304° West 219 252 5,000 -50 Descending New York TRACON
Mon 09:15:37 AM 41.1667 -73.1667 285° West 223 257 5,000 -300 Level New York TRACON
Mon 09:16:37 AM 41.1667 -73.2500 270° West 229 264 4,400 -500 Descending New York TRACON
Mon 09:17:37 AM 41.1833 -73.3333 285° West 231 266 4,000 -211 Descending New York TRACON
Mon 09:18:31 AM 41.1833 -73.4000 270° West 225 259 4,000 -50 Level New York TRACON
Mon 09:19:37 AM 41.1833 -73.5000 270° West 226 260 3,900 -476 Descending New York TRACON
Mon 09:20:37 AM 41.2000 -73.5667 288° West 226 260 3,000 -450 Descending New York TRACON
Mon 09:21:37 AM 41.2167 -73.6500 285° West 220 253 3,000 -105 Level New York TRACON
Mon 09:22:31 AM 41.2167 -73.7167 270° West 222 255 2,800 -526 Descending New York TRACON
Mon 09:23:31 AM 41.1833 -73.7833 236° Southwest 205 236 2,000 -400 Descending New York TRACON
Mon 09:24:31 AM 41.1500 -73.7667 159° South 168 193 2,000 -368 Level New York TRACON
Mon 09:25:25 AM 41.1167 -73.7333 143° Southeast 153 176 1,300 -700 Descending New York TRACON
Mon 09:26:31 AM 41.0833 -73.7167 159° South 131 151 600 -636 Descending New York TRACON

Login

Don't have an account? Register now (free) for customized features, flight alerts, and more!